createdAt,value
2018-06-18T00:00:02.929Z,11.67
2018-06-18T00:02:32.427Z,12.00
2018-06-18T00:05:04.631Z,12.93
2018-06-18T00:07:33.448Z,12.47
2018-06-18T00:10:02.587Z,11.67
2018-06-18T00:12:31.225Z,11.60
2018-06-18T00:15:03.800Z,11.20
2018-06-18T00:17:33.105Z,12.20
2018-06-18T00:20:04.509Z,11.60
2018-06-18T00:22:36.079Z,13.13
2018-06-18T00:25:13.432Z,11.80
2018-06-18T00:27:43.764Z,14.17
2018-06-18T00:30:17.460Z,13.23
2018-06-18T00:32:46.199Z,12.50
2018-06-18T00:35:16.819Z,12.57
2018-06-18T00:37:46.215Z,12.40
2018-06-18T00:40:18.995Z,13.77
2018-06-18T00:42:58.294Z,13.27
2018-06-18T00:45:27.500Z,13.13
2018-06-18T00:47:57.054Z,11.87
2018-06-18T00:50:30.974Z,12.50
2018-06-18T00:53:00.383Z,12.63
2018-06-18T00:56:32.652Z,11.83
2018-06-18T00:59:09.276Z,12.17
2018-06-18T01:01:39.561Z,12.13
2018-06-18T01:04:18.468Z,11.67
2018-06-18T01:06:51.092Z,11.93
2018-06-18T01:09:19.823Z,12.17
2018-06-18T01:11:49.074Z,11.77
2018-06-18T01:14:20.652Z,11.20
2018-06-18T01:16:51.192Z,13.40
2018-06-18T01:19:19.769Z,12.60
2018-06-18T01:21:49.462Z,12.40
2018-06-18T01:24:23.807Z,12.23
2018-06-18T01:26:54.280Z,11.20
2018-06-18T01:29:23.769Z,11.93
2018-06-18T01:31:56.986Z,11.63
2018-06-18T01:34:27.285Z,11.43
2018-06-18T01:37:04.915Z,12.10
2018-06-18T01:39:35.432Z,11.53
2018-06-18T01:42:12.166Z,10.73
2018-06-18T01:44:43.119Z,11.83
2018-06-18T01:47:13.383Z,10.83
2018-06-18T01:49:42.925Z,12.50
2018-06-18T01:52:12.281Z,11.87
2018-06-18T01:54:44.593Z,11.07
2018-06-18T01:57:14.601Z,11.17
2018-06-18T01:59:47.649Z,10.57
2018-06-18T02:02:19.259Z,10.40
2018-06-18T02:07:30.635Z,10.27
2018-06-18T02:10:04.239Z,10.57
2018-06-18T02:12:40.239Z,10.50
2018-06-18T02:15:14.361Z,9.07
2018-06-18T02:17:44.872Z,9.87
2018-06-18T02:20:18.499Z,9.07
2018-06-18T02:22:57.847Z,9.97
2018-06-18T02:25:30.535Z,8.17
2018-06-18T02:28:04.682Z,10.00
2018-06-18T02:32:46.803Z,8.47
2018-06-18T02:35:23.584Z,8.80
2018-06-18T02:37:58.514Z,10.63
2018-06-18T02:40:33.095Z,8.80
2018-06-18T02:43:05.692Z,6.97
2018-06-18T02:45:35.829Z,7.47
2018-06-18T02:48:06.567Z,8.00
2018-06-18T02:50:35.476Z,6.40
2018-06-18T02:53:05.211Z,7.33
2018-06-18T02:55:37.855Z,6.50
2018-06-18T02:58:07.990Z,6.13
2018-06-18T03:00:37.165Z,6.20
2018-06-18T03:03:11.424Z,5.80
2018-06-18T03:05:40.739Z,6.00
2018-06-18T03:08:10.225Z,5.93
2018-06-18T03:10:39.364Z,5.40
2018-06-18T03:13:12.335Z,4.90
2018-06-18T03:15:44.332Z,5.07
2018-06-18T03:18:23.889Z,4.80
2018-06-18T03:23:03.645Z,5.30
2018-06-18T03:25:39.789Z,3.80
2018-06-18T03:28:25.601Z,3.83
2018-06-18T03:30:54.269Z,3.53
2018-06-18T03:33:24.355Z,4.20
2018-06-18T03:35:58.722Z,3.70
2018-06-18T03:38:30.997Z,4.10
2018-06-18T03:41:00.600Z,3.63
2018-06-18T03:43:29.420Z,2.60
2018-06-18T03:45:58.376Z,2.33
2018-06-18T03:48:32.987Z,2.33
2018-06-18T03:51:06.677Z,1.87
2018-06-18T03:53:35.529Z,2.10
2018-06-18T03:56:12.433Z,2.10
2018-06-18T03:58:47.242Z,1.90
2018-06-18T04:01:30.773Z,2.07
2018-06-18T04:04:06.407Z,1.93
2018-06-18T04:06:43.383Z,2.10
2018-06-18T04:09:18.086Z,1.90
2018-06-18T04:12:12.270Z,2.10
2018-06-18T04:14:44.575Z,2.00
2018-06-18T04:17:13.112Z,1.77
2018-06-18T04:19:41.857Z,2.13
2018-06-18T04:22:11.237Z,2.07
2018-06-18T04:24:42.526Z,2.03
2018-06-18T04:27:11.736Z,1.70
2018-06-18T04:29:42.937Z,1.77
2018-06-18T04:32:16.058Z,1.57
2018-06-18T04:34:54.258Z,2.00
2018-06-18T04:37:28.531Z,1.60
2018-06-18T04:40:02.447Z,1.63
2018-06-18T04:42:37.685Z,1.93
2018-06-18T04:47:54.026Z,1.70
2018-06-18T04:50:58.837Z,1.70
2018-06-18T04:53:29.226Z,1.57
2018-06-18T04:56:01.213Z,1.40
2018-06-18T04:58:30.820Z,1.40
2018-06-18T05:01:08.660Z,1.30
2018-06-18T05:03:37.821Z,1.60
2018-06-18T05:06:06.705Z,1.60
2018-06-18T05:10:44.257Z,1.40
2018-06-18T05:13:13.443Z,1.60
2018-06-18T05:15:43.985Z,1.67
2018-06-18T05:18:12.729Z,1.77
2018-06-18T05:20:42.077Z,1.60
2018-06-18T05:23:15.876Z,1.50
2018-06-18T05:25:44.927Z,1.20
2018-06-18T05:28:18.373Z,1.33
2018-06-18T05:30:48.328Z,1.50
2018-06-18T05:33:18.025Z,1.27
2018-06-18T05:35:47.208Z,1.60
2018-06-18T05:38:21.894Z,1.30
2018-06-18T05:40:54.647Z,1.47
2018-06-18T05:43:31.155Z,1.40
2018-06-18T05:46:09.066Z,1.27
2018-06-18T05:48:40.669Z,1.13
2018-06-18T05:51:09.223Z,1.60
2018-06-18T05:53:38.610Z,1.00
2018-06-18T05:56:08.089Z,1.40
2018-06-18T05:58:37.952Z,1.33
2018-06-18T06:01:08.044Z,1.50
2018-06-18T06:03:45.794Z,1.43
2018-06-18T06:06:19.733Z,1.27
2018-06-18T06:08:48.491Z,1.43
2018-06-18T06:11:17.753Z,1.43
2018-06-18T06:13:46.667Z,1.50
2018-06-18T06:16:19.255Z,1.40
2018-06-18T06:18:52.209Z,1.27
2018-06-18T06:21:22.724Z,1.27
2018-06-18T06:23:55.301Z,1.57
2018-06-18T06:26:30.724Z,1.97
2018-06-18T06:29:05.858Z,1.40
2018-06-18T06:31:39.507Z,1.30
2018-06-18T06:34:16.867Z,1.80
2018-06-18T06:36:51.002Z,1.43
2018-06-18T06:39:20.950Z,1.73
2018-06-18T06:41:57.603Z,1.97
2018-06-18T06:44:33.158Z,1.40
2018-06-18T06:47:07.601Z,2.03
2018-06-18T06:49:45.218Z,1.90
2018-06-18T06:52:17.754Z,2.50
2018-06-18T06:54:51.640Z,2.90
2018-06-18T06:57:24.708Z,3.07
2018-06-18T06:59:58.822Z,2.63
2018-06-18T07:02:34.723Z,2.43
2018-06-18T07:05:09.996Z,2.07
2018-06-18T07:07:47.417Z,2.60
2018-06-18T07:10:17.319Z,1.83
2018-06-18T07:12:47.964Z,1.90
2018-06-18T07:15:17.705Z,1.97
2018-06-18T07:17:55.656Z,1.90
2018-06-18T07:20:26.407Z,1.97
2018-06-18T07:22:56.728Z,1.40
2018-06-18T07:25:31.426Z,1.37
2018-06-18T07:28:00.552Z,1.40
2018-06-18T07:30:33.549Z,1.43
2018-06-18T07:33:08.915Z,2.10
2018-06-18T07:35:45.367Z,1.80
2018-06-18T07:38:16.410Z,1.70
2018-06-18T07:40:46.207Z,1.77
2018-06-18T07:43:15.713Z,1.90
2018-06-18T07:45:45.547Z,1.13
2018-06-18T07:48:17.129Z,1.53
2018-06-18T07:50:55.967Z,1.87
2018-06-18T07:53:27.196Z,1.70
2018-06-18T07:55:57.851Z,1.80
2018-06-18T07:58:31.894Z,2.17
2018-06-18T08:01:02.688Z,1.93
2018-06-18T08:03:32.011Z,1.73
2018-06-18T08:06:04.092Z,1.90
2018-06-18T08:08:32.880Z,2.03
2018-06-18T08:11:01.606Z,2.17
2018-06-18T08:13:31.842Z,1.90
2018-06-18T08:16:05.257Z,1.80
2018-06-18T08:18:39.728Z,1.90
2018-06-18T08:21:13.498Z,1.90
2018-06-18T08:23:49.856Z,1.90
2018-06-18T08:26:26.053Z,1.80
2018-06-18T08:28:57.555Z,2.13
2018-06-18T08:31:34.569Z,2.10
2018-06-18T08:34:16.501Z,1.90
2018-06-18T08:36:45.053Z,2.07
2018-06-18T08:39:17.847Z,2.20
2018-06-18T08:41:46.446Z,2.00
2018-06-18T08:44:15.418Z,2.17
2018-06-18T08:46:45.267Z,1.87
2018-06-18T08:49:17.955Z,2.73
2018-06-18T08:51:54.644Z,2.53
2018-06-18T09:22:31.503Z,2.27
2018-06-18T09:25:13.166Z,2.17
2018-06-18T09:27:44.788Z,2.37
2018-06-18T09:30:14.524Z,2.23
2018-06-18T09:32:53.484Z,1.73
2018-06-18T09:35:34.065Z,2.20
2018-06-18T09:38:03.112Z,2.17
2018-06-18T09:40:36.905Z,2.10
2018-06-18T09:43:08.036Z,1.70
2018-06-18T09:45:41.498Z,2.27
2018-06-18T09:48:18.986Z,2.20
2018-06-18T09:50:57.389Z,2.27
2018-06-18T09:53:33.508Z,2.13
2018-06-18T09:56:08.252Z,2.43
2018-06-18T09:58:46.680Z,2.20
2018-06-18T10:01:26.959Z,2.40
2018-06-18T10:03:56.975Z,2.43
2018-06-18T10:06:31.278Z,2.60
2018-06-18T10:09:07.310Z,2.90
2018-06-18T10:11:41.071Z,3.17
2018-06-18T10:14:21.472Z,3.10
2018-06-18T10:16:51.562Z,2.53
2018-06-18T10:19:22.718Z,2.77
2018-06-18T10:22:31.804Z,2.90
2018-06-18T10:25:02.080Z,2.90
2018-06-18T10:27:42.467Z,2.97
2018-06-18T10:30:15.724Z,2.93
2018-06-18T10:32:53.787Z,2.63
2018-06-18T10:35:31.176Z,2.57
2018-06-18T10:38:05.419Z,3.00
2018-06-18T10:40:40.095Z,2.67
2018-06-18T10:43:46.867Z,2.95
2018-06-18T10:46:18.427Z,2.65
2018-06-18T10:48:48.862Z,2.87
2018-06-18T10:51:36.244Z,2.98
2018-06-18T10:54:16.732Z,2.80
2018-06-18T10:56:55.205Z,2.75
2018-06-18T10:59:36.836Z,2.80
2018-06-18T11:02:30.728Z,2.87
2018-06-18T11:05:12.927Z,2.70
2018-06-18T11:07:48.723Z,2.67
2018-06-18T16:54:44.791Z,4.47
2018-06-18T16:57:31.347Z,4.22
2018-06-18T17:00:05.644Z,4.30
2018-06-18T17:06:15.127Z,4.35
2018-06-18T17:08:51.826Z,4.55
2018-06-18T17:11:30.437Z,4.25
2018-06-18T17:14:00.930Z,4.25
2018-06-18T17:16:33.754Z,4.35
2018-06-18T17:19:08.180Z,4.00
2018-06-18T17:21:50.436Z,4.30
2018-06-18T17:27:19.273Z,4.42
2018-06-18T17:29:57.761Z,4.05
2018-06-18T17:32:31.672Z,4.37
2018-06-18T17:35:31.549Z,3.75
2018-06-18T17:38:15.327Z,4.58
2018-06-18T17:48:05.513Z,4.15
2018-06-18T17:54:21.809Z,4.40
2018-06-18T18:00:21.743Z,4.00
2018-06-18T18:03:32.538Z,4.12
2018-06-18T18:25:16.363Z,4.10
2018-06-18T18:28:28.023Z,4.00
2018-06-18T18:35:33.920Z,4.00
2018-06-18T18:45:03.227Z,4.20
2018-06-18T18:50:50.031Z,4.10
2018-06-18T18:53:19.312Z,4.00
2018-06-18T18:55:56.944Z,3.95
2018-06-18T18:58:52.763Z,3.70
2018-06-18T19:21:43.852Z,4.20
2018-06-18T19:24:28.859Z,4.07
2018-06-18T19:27:11.205Z,4.53
2018-06-18T19:30:02.886Z,4.17
2018-06-18T20:11:58.176Z,4.67
2018-06-18T20:14:30.044Z,5.43
2018-06-18T20:17:17.968Z,5.23
2018-06-18T20:20:20.908Z,4.93
2018-06-18T20:23:05.922Z,5.07
2018-06-18T20:26:13.438Z,5.50
2018-06-18T20:29:04.954Z,5.97
2018-06-18T20:31:59.079Z,6.10
2018-06-18T20:34:37.578Z,5.53
2018-06-18T20:37:28.826Z,5.57
2018-06-18T20:40:11.680Z,5.67
2018-06-18T20:42:59.733Z,5.80
2018-06-18T20:48:44.653Z,6.10
2018-06-18T20:51:36.222Z,5.33
2018-06-18T20:54:29.398Z,5.37
2018-06-18T20:57:15.675Z,5.47
2018-06-18T21:00:07.457Z,6.17
2018-06-18T21:02:56.239Z,5.80
2018-06-18T21:05:51.257Z,6.10
2018-06-18T21:08:40.966Z,5.40
2018-06-18T21:11:14.555Z,5.50
2018-06-18T21:14:00.494Z,6.13
2018-06-18T21:16:50.152Z,5.47
2018-06-18T21:19:46.384Z,6.23
2018-06-18T21:22:25.872Z,6.23
2018-06-18T21:25:04.549Z,5.87
2018-06-18T21:27:43.041Z,5.50
2018-06-18T21:30:34.109Z,6.00
2018-06-18T21:33:28.193Z,5.70
2018-06-18T21:39:39.611Z,7.13
2018-06-18T22:04:25.893Z,6.70
2018-06-18T22:12:17.107Z,6.30
2018-06-18T22:17:45.913Z,6.47
2018-06-18T22:20:34.543Z,6.43
2018-06-18T22:23:57.280Z,5.90
2018-06-18T22:26:56.899Z,6.27
2018-06-18T22:32:50.477Z,6.67
2018-06-18T22:35:48.519Z,6.40
2018-06-18T22:57:02.960Z,6.60
2018-06-18T22:59:44.357Z,6.20
2018-06-18T23:05:29.119Z,5.93
2018-06-18T23:08:39.195Z,6.40
2018-06-18T23:11:23.179Z,5.83
2018-06-18T23:14:24.704Z,6.13
2018-06-18T23:17:00.259Z,5.60
2018-06-18T23:19:52.979Z,5.77
2018-06-18T23:22:34.729Z,5.60
2018-06-18T23:25:11.226Z,5.47
2018-06-18T23:27:59.172Z,5.10
2018-06-18T23:30:36.373Z,5.23
2018-06-18T23:33:12.003Z,6.17
2018-06-18T23:35:47.002Z,5.20
2018-06-18T23:38:27.395Z,4.87
2018-06-18T23:41:09.565Z,5.30
2018-06-18T23:44:01.323Z,5.50
2018-06-18T23:46:54.916Z,5.20
2018-06-18T23:49:38.295Z,5.33
2018-06-18T23:52:12.667Z,5.60
2018-06-18T23:54:52.979Z,5.10
2018-06-18T23:57:37.321Z,5.10
